createdAt,value
2023-03-21T00:01:51.834Z,155.85
2023-03-21T00:04:18.965Z,146.25
2023-03-21T00:06:46.490Z,158.95
2023-03-21T00:09:13.233Z,171.60
2023-03-21T00:11:40.597Z,245.35
2023-03-21T00:14:08.566Z,140.57
2023-03-21T00:16:37.542Z,134.13
2023-03-21T00:19:07.477Z,160.40
2023-03-21T00:21:55.658Z,164.73
2023-03-21T00:24:25.432Z,194.85
2023-03-21T00:26:52.505Z,237.60
2023-03-21T00:29:20.268Z,140.13
2023-03-21T00:31:47.082Z,172.77
2023-03-21T00:34:14.196Z,160.77
2023-03-21T00:36:41.112Z,165.18
2023-03-21T00:39:08.045Z,139.15
2023-03-21T00:41:42.616Z,106.35
2023-03-21T00:44:13.579Z,82.80
2023-03-21T00:46:47.230Z,60.70
2023-03-21T00:49:20.830Z,61.83
2023-03-21T00:51:51.324Z,71.53
2023-03-21T00:54:18.213Z,185.13
2023-03-21T00:56:45.036Z,181.25
2023-03-21T00:59:11.901Z,183.63
2023-03-21T01:01:38.698Z,270.50
2023-03-21T01:04:10.918Z,280.85
2023-03-21T01:06:41.939Z,272.45
2023-03-21T01:09:31.469Z,465.63
2023-03-21T01:11:58.715Z,645.72
2023-03-21T01:14:25.832Z,302.27
2023-03-21T01:16:54.835Z,264.27
2023-03-21T01:19:44.267Z,303.27
2023-03-21T01:22:15.646Z,283.75
2023-03-21T01:24:52.518Z,322.75
2023-03-21T01:27:21.524Z,519.80
2023-03-21T01:29:49.325Z,841.58
2023-03-21T01:32:16.673Z,212.40
2023-03-21T01:34:43.767Z,188.63
2023-03-21T01:37:10.943Z,184.40
2023-03-21T01:39:45.095Z,156.82
2023-03-21T01:42:15.550Z,146.73
2023-03-21T01:45:04.854Z,149.65
2023-03-21T01:47:43.272Z,135.43
2023-03-21T01:50:30.625Z,133.85
2023-03-21T01:53:09.869Z,140.85
2023-03-21T01:55:38.288Z,140.60
2023-03-21T01:58:27.548Z,140.30
2023-03-21T02:01:23.013Z,150.57
2023-03-21T02:03:56.204Z,551.95
2023-03-21T02:06:52.174Z,550.90
2023-03-21T02:09:48.049Z,549.70
2023-03-21T02:12:21.284Z,463.85
2023-03-21T02:14:50.183Z,484.55
2023-03-21T02:17:56.920Z,451.57
2023-03-21T02:21:08.794Z,427.95
2023-03-21T02:24:25.590Z,407.35
2023-03-21T02:27:04.801Z,471.33
2023-03-21T02:30:05.825Z,494.10
2023-03-21T02:32:38.083Z,445.93
2023-03-21T02:35:41.486Z,400.45
2023-03-21T02:38:39.704Z,507.42
2023-03-21T02:41:20.086Z,576.65
2023-03-21T02:44:13.151Z,577.50
2023-03-21T02:47:02.909Z,599.00
2023-03-21T02:49:54.478Z,595.67
2023-03-21T02:52:37.879Z,592.53
2023-03-21T02:55:29.827Z,216.63
2023-03-21T02:58:12.454Z,227.15
2023-03-21T03:00:46.043Z,404.60
2023-03-21T03:03:33.091Z,473.05
2023-03-21T03:06:03.980Z,549.75
2023-03-21T03:08:53.010Z,556.35
2023-03-21T03:11:28.845Z,558.27
2023-03-21T03:14:21.146Z,552.87
2023-03-21T03:16:51.314Z,572.72
2023-03-21T03:19:34.436Z,539.38
2023-03-21T03:22:10.174Z,418.97
2023-03-21T03:25:18.614Z,541.23
2023-03-21T03:27:49.346Z,538.05
2023-03-21T03:30:17.478Z,545.40
2023-03-21T03:32:44.766Z,499.20
2023-03-21T03:35:15.546Z,502.35
2023-03-21T03:37:44.915Z,574.70
2023-03-21T03:40:18.862Z,569.75
2023-03-21T03:42:58.724Z,521.65
2023-03-21T03:45:42.581Z,574.58
2023-03-21T03:48:17.466Z,576.33
2023-03-21T03:51:13.032Z,569.75
2023-03-21T03:54:21.923Z,568.15
2023-03-21T03:56:50.713Z,585.95
2023-03-21T03:59:25.043Z,590.90
2023-03-21T04:02:06.860Z,531.23
2023-03-21T04:04:34.598Z,565.73
2023-03-21T04:07:03.425Z,512.53
2023-03-21T04:09:43.142Z,584.78
2023-03-21T04:12:13.156Z,512.00
2023-03-21T04:14:47.411Z,589.83
2023-03-21T04:17:17.051Z,611.55
2023-03-21T04:19:45.276Z,571.60
2023-03-21T04:22:13.057Z,938.17
2023-03-21T04:24:44.028Z,790.15
2023-03-21T04:27:11.338Z,999.90
2023-03-21T04:29:40.837Z,514.20
2023-03-21T04:32:56.495Z,562.20
2023-03-21T04:35:25.558Z,537.40
2023-03-21T04:37:52.450Z,266.35
2023-03-21T04:40:19.973Z,188.27
2023-03-21T04:42:48.218Z,191.63
2023-03-21T04:45:16.212Z,190.23
2023-03-21T04:47:45.531Z,180.83
2023-03-21T04:50:13.648Z,255.02
2023-03-21T04:52:42.004Z,286.48
2023-03-21T04:55:10.155Z,166.05
2023-03-21T04:57:39.334Z,553.08
2023-03-21T05:00:11.123Z,182.13
2023-03-21T05:02:39.384Z,356.30
2023-03-21T05:05:11.011Z,695.42
2023-03-21T05:07:39.404Z,734.28
2023-03-21T05:10:07.478Z,677.17
2023-03-21T05:12:34.590Z,700.20
2023-03-21T05:15:01.647Z,716.05
2023-03-21T05:17:29.491Z,713.58
2023-03-21T05:19:58.139Z,726.30
2023-03-21T05:22:26.738Z,436.67
2023-03-21T05:24:55.347Z,547.88
2023-03-21T05:27:54.024Z,739.25
2023-03-21T05:30:25.427Z,528.53
2023-03-21T05:32:57.780Z,652.05
2023-03-21T05:35:26.777Z,684.72
2023-03-21T05:37:55.669Z,559.38
2023-03-21T05:40:24.968Z,667.20
2023-03-21T05:42:55.561Z,674.45
2023-03-21T05:45:23.775Z,761.63
2023-03-21T05:47:51.620Z,628.00
2023-03-21T05:50:21.355Z,740.70
2023-03-21T05:53:01.133Z,677.13
2023-03-21T05:55:28.499Z,652.80
2023-03-21T05:57:57.304Z,705.33
2023-03-21T06:00:29.653Z,252.90
2023-03-21T06:03:17.275Z,235.50
2023-03-21T06:06:01.161Z,271.57
2023-03-21T06:08:34.192Z,267.42
2023-03-21T06:11:01.380Z,287.92
2023-03-21T06:13:31.229Z,283.85
2023-03-21T06:15:58.179Z,287.45
2023-03-21T06:18:26.190Z,363.35
2023-03-21T06:21:14.112Z,376.63
2023-03-21T06:23:41.299Z,385.00
2023-03-21T06:26:08.599Z,484.33
2023-03-21T06:28:36.633Z,610.38
2023-03-21T06:31:03.873Z,640.08
2023-03-21T06:33:31.855Z,654.92
2023-03-21T06:35:58.931Z,240.70
2023-03-21T06:38:26.056Z,274.27
2023-03-21T06:40:54.022Z,295.40
2023-03-21T06:43:23.503Z,318.38
2023-03-21T06:45:50.886Z,308.30
2023-03-21T06:48:17.802Z,372.05
2023-03-21T06:50:52.553Z,293.80
2023-03-21T06:53:24.836Z,261.55
2023-03-21T06:56:15.093Z,293.63
2023-03-21T06:58:42.940Z,296.10
2023-03-21T07:01:17.598Z,326.38
2023-03-21T07:03:57.414Z,300.17
2023-03-21T07:06:28.462Z,280.05
2023-03-21T07:08:56.575Z,308.30
2023-03-21T07:11:25.232Z,300.38
2023-03-21T07:13:52.326Z,366.30
2023-03-21T07:16:19.597Z,310.35
2023-03-21T07:18:46.576Z,293.60
2023-03-21T07:21:13.443Z,299.33
2023-03-21T07:23:40.379Z,311.77
2023-03-21T07:26:07.452Z,288.48
2023-03-21T07:28:34.540Z,304.10
2023-03-21T07:31:04.221Z,282.45
2023-03-21T07:33:32.642Z,337.08
2023-03-21T07:36:02.501Z,280.95
2023-03-21T07:38:31.089Z,276.38
2023-03-21T07:41:00.603Z,276.85
2023-03-21T07:43:31.066Z,346.42
2023-03-21T07:45:59.484Z,313.10
2023-03-21T07:48:27.845Z,342.08
2023-03-21T07:50:54.716Z,330.98
2023-03-21T07:53:21.942Z,309.85
2023-03-21T07:55:53.718Z,323.47
2023-03-21T07:58:20.618Z,371.77
2023-03-21T08:00:47.462Z,356.77
2023-03-21T08:03:14.338Z,343.93
2023-03-21T08:05:41.999Z,232.18
2023-03-21T08:08:09.046Z,267.00
2023-03-21T08:10:36.526Z,267.38
2023-03-21T08:13:04.272Z,229.88
2023-03-21T08:15:31.312Z,229.80
2023-03-21T08:17:59.492Z,259.13
2023-03-21T08:20:27.359Z,207.75
2023-03-21T08:22:54.636Z,249.60
2023-03-21T08:25:22.437Z,277.40
2023-03-21T08:27:51.432Z,285.58
2023-03-21T08:30:23.861Z,281.83
2023-03-21T08:32:51.038Z,292.13
2023-03-21T08:35:19.443Z,364.85
2023-03-21T08:37:46.209Z,353.63
2023-03-21T08:40:16.150Z,402.85
2023-03-21T08:42:46.368Z,405.35
2023-03-21T08:45:14.650Z,528.97
2023-03-21T08:47:41.715Z,467.33
2023-03-21T08:50:11.950Z,444.80
2023-03-21T08:52:38.817Z,479.63
2023-03-21T08:55:06.221Z,502.45
2023-03-21T08:57:32.917Z,537.50
2023-03-21T08:59:59.734Z,604.92
2023-03-21T09:02:27.028Z,695.15
2023-03-21T09:04:54.906Z,320.27
2023-03-21T09:07:22.195Z,376.48
2023-03-21T09:10:03.017Z,421.38
2023-03-21T09:12:39.135Z,418.23
2023-03-21T09:15:07.366Z,432.47
2023-03-21T09:17:34.350Z,445.52
2023-03-21T09:20:08.332Z,398.77
2023-03-21T09:22:35.448Z,358.75
2023-03-21T09:25:02.769Z,356.40
2023-03-21T09:27:29.694Z,340.00
2023-03-21T09:29:57.410Z,368.27
2023-03-21T09:32:25.119Z,376.77
2023-03-21T09:34:53.019Z,251.27
2023-03-21T09:37:21.148Z,254.35
2023-03-21T09:39:50.488Z,270.10
2023-03-21T09:42:48.256Z,337.30
2023-03-21T09:45:30.146Z,302.10
2023-03-21T09:47:58.254Z,357.17
2023-03-21T09:50:31.835Z,314.97
2023-03-21T09:53:05.807Z,894.70
2023-03-21T09:55:35.468Z,366.48
2023-03-21T09:58:16.155Z,342.55
2023-03-21T10:00:47.511Z,483.83
2023-03-21T10:03:24.354Z,882.08
2023-03-21T10:05:58.504Z,999.90
2023-03-21T10:08:36.606Z,888.63
2023-03-21T10:11:13.989Z,156.00
2023-03-21T10:13:49.756Z,140.43
2023-03-21T10:16:27.449Z,120.57
2023-03-21T10:18:55.201Z,249.75
2023-03-21T10:21:56.634Z,607.72
2023-03-21T10:24:27.197Z,16.67
2023-03-21T10:26:55.998Z,3.80
2023-03-21T10:29:27.379Z,8.38
2023-03-21T10:31:55.676Z,6.80
2023-03-21T10:34:36.476Z,8.93
2023-03-21T10:37:04.529Z,39.60
2023-03-21T10:39:41.411Z,4.68
2023-03-21T10:42:20.210Z,2.20
2023-03-21T10:44:49.540Z,2.92
2023-03-21T10:47:22.256Z,3.22
2023-03-21T10:50:06.783Z,8.30
2023-03-21T10:52:36.482Z,21.40
2023-03-21T10:55:32.007Z,20.58
2023-03-21T10:58:10.847Z,121.28
2023-03-21T11:00:41.231Z,118.25
2023-03-21T11:03:21.090Z,42.07
2023-03-21T11:05:48.844Z,134.98
2023-03-21T11:08:18.536Z,41.67
2023-03-21T11:10:59.613Z,1.88
2023-03-21T11:13:33.337Z,13.27
2023-03-21T11:16:10.960Z,233.32
2023-03-21T11:18:44.790Z,23.90
2023-03-21T11:21:13.863Z,106.78
2023-03-21T11:23:49.854Z,92.75
2023-03-21T11:26:30.648Z,20.13
2023-03-21T11:28:57.975Z,57.63
2023-03-21T11:31:41.358Z,112.88
2023-03-21T11:34:09.492Z,78.45
2023-03-21T11:36:41.606Z,131.38
2023-03-21T11:39:11.556Z,151.93
2023-03-21T11:41:41.151Z,109.65
2023-03-21T11:44:28.296Z,77.80
2023-03-21T11:46:55.675Z,9.30
2023-03-21T11:49:23.989Z,94.22
2023-03-21T11:52:18.711Z,55.60
2023-03-21T11:55:25.190Z,56.45
2023-03-21T11:58:13.914Z,47.03
2023-03-21T12:00:57.231Z,74.87
2023-03-21T12:03:47.595Z,24.27
2023-03-21T12:06:37.221Z,37.80
2023-03-21T12:09:28.056Z,37.15
2023-03-21T12:12:15.106Z,41.65
2023-03-21T12:14:55.756Z,36.53
2023-03-21T12:18:03.790Z,76.53
2023-03-21T12:20:41.866Z,97.65
2023-03-21T12:23:27.673Z,78.82
2023-03-21T12:26:03.303Z,93.03
2023-03-21T12:28:42.385Z,103.68
2023-03-21T12:31:26.498Z,107.00
2023-03-21T12:34:12.242Z,89.68
2023-03-21T12:36:47.897Z,76.20
2023-03-21T12:39:21.576Z,23.60
2023-03-21T12:42:06.267Z,48.83
2023-03-21T12:44:38.922Z,74.32
2023-03-21T12:47:22.013Z,36.50
2023-03-21T12:50:15.253Z,69.82
2023-03-21T12:52:47.529Z,48.03
2023-03-21T12:55:22.657Z,87.17
2023-03-21T12:57:57.782Z,67.25
2023-03-21T13:00:44.998Z,84.95
2023-03-21T13:03:27.656Z,63.55
2023-03-21T13:06:06.056Z,35.15
2023-03-21T13:08:46.990Z,16.58
2023-03-21T13:11:19.050Z,8.03
2023-03-21T13:13:52.122Z,9.68
2023-03-21T13:16:28.491Z,8.15
2023-03-21T13:19:26.921Z,8.33
2023-03-21T13:22:26.413Z,9.90
2023-03-21T13:25:03.080Z,9.13
2023-03-21T13:27:36.071Z,30.20
2023-03-21T13:30:18.345Z,38.40
2023-03-21T13:32:48.825Z,60.33
2023-03-21T13:35:27.134Z,45.97
2023-03-21T13:37:58.167Z,48.17
2023-03-21T13:40:37.528Z,34.22
2023-03-21T13:43:04.757Z,13.77
2023-03-21T13:45:46.255Z,11.30
2023-03-21T13:48:27.943Z,44.05
2023-03-21T13:51:05.305Z,58.38
2023-03-21T13:53:45.251Z,69.93
2023-03-21T13:56:15.174Z,75.38
2023-03-21T13:58:44.871Z,65.65
2023-03-21T14:01:17.755Z,116.27
2023-03-21T14:03:47.023Z,80.68
2023-03-21T14:06:16.149Z,65.53
2023-03-21T14:08:46.578Z,87.93
2023-03-21T14:11:18.846Z,82.68
2023-03-21T14:13:51.375Z,20.88
2023-03-21T14:16:20.268Z,28.13
2023-03-21T14:18:55.082Z,37.58
2023-03-21T14:21:30.072Z,39.35
2023-03-21T14:24:11.416Z,30.85
2023-03-21T14:26:43.301Z,66.70
2023-03-21T14:29:26.102Z,49.38
2023-03-21T14:31:54.594Z,26.50
2023-03-21T14:34:22.967Z,28.20
2023-03-21T14:36:57.526Z,32.10
2023-03-21T14:39:32.894Z,42.53
2023-03-21T14:42:09.179Z,24.67
2023-03-21T14:44:54.937Z,40.07
2023-03-21T14:47:26.172Z,36.63
2023-03-21T14:49:53.600Z,35.13
2023-03-21T14:52:40.963Z,36.10
2023-03-21T14:55:16.444Z,48.63
2023-03-21T14:57:46.454Z,29.77
2023-03-21T15:00:22.784Z,50.78
2023-03-21T15:02:51.364Z,30.73
2023-03-21T15:05:24.410Z,35.17
2023-03-21T15:07:57.344Z,41.88
2023-03-21T15:10:26.559Z,51.92
2023-03-21T15:12:57.065Z,30.52
2023-03-21T15:15:27.588Z,3.83
2023-03-21T15:17:58.357Z,4.72
2023-03-21T15:20:28.219Z,11.30
2023-03-21T15:23:03.485Z,6.40
2023-03-21T15:25:34.770Z,4.22
2023-03-21T15:28:02.129Z,4.68
2023-03-21T15:30:31.767Z,33.00
2023-03-21T15:33:05.942Z,33.45
2023-03-21T15:35:45.944Z,33.28
2023-03-21T15:38:45.041Z,39.08
2023-03-21T15:41:20.845Z,41.10
2023-03-21T15:44:13.605Z,23.77
2023-03-21T15:46:52.079Z,23.88
2023-03-21T15:49:25.177Z,40.40
2023-03-21T15:52:14.380Z,32.88
2023-03-21T15:54:50.829Z,32.58
2023-03-21T15:57:32.588Z,42.75
2023-03-21T16:00:12.937Z,46.30
2023-03-21T16:02:41.859Z,40.50
2023-03-21T16:05:31.495Z,44.92
2023-03-21T16:08:02.822Z,44.58
2023-03-21T16:10:39.212Z,52.00
2023-03-21T16:13:06.590Z,32.25
2023-03-21T16:15:33.541Z,44.43
2023-03-21T16:18:03.621Z,29.35
2023-03-21T16:20:41.400Z,49.42
2023-03-21T16:23:12.154Z,62.60
2023-03-21T16:25:39.167Z,46.17
2023-03-21T16:28:19.443Z,66.28
2023-03-21T16:30:46.308Z,54.00
2023-03-21T16:33:13.748Z,51.38
2023-03-21T16:35:41.104Z,58.33
2023-03-21T16:38:09.463Z,67.40
2023-03-21T16:40:39.571Z,58.47
2023-03-21T16:43:07.641Z,77.50
2023-03-21T16:45:34.434Z,56.65
2023-03-21T16:48:01.475Z,43.90
2023-03-21T16:50:33.053Z,54.85
2023-03-21T16:53:01.008Z,18.80
2023-03-21T16:55:28.725Z,4.03
2023-03-21T16:57:57.181Z,2.25
2023-03-21T17:00:27.064Z,3.58
2023-03-21T17:02:56.178Z,2.45
2023-03-21T17:05:26.184Z,2.40
2023-03-21T17:07:56.124Z,1.50
2023-03-21T17:10:28.830Z,1.70
2023-03-21T17:12:55.666Z,1.70
2023-03-21T17:15:22.660Z,2.53
2023-03-21T17:17:50.280Z,1.20
2023-03-21T17:20:24.554Z,1.88
2023-03-21T17:22:51.997Z,1.80
2023-03-21T17:25:19.284Z,2.20
2023-03-21T17:27:47.049Z,2.00
2023-03-21T17:30:40.802Z,3.17
2023-03-21T17:33:07.716Z,1.67
2023-03-21T17:35:34.469Z,1.63
2023-03-21T17:38:01.145Z,1.47
2023-03-21T17:40:30.448Z,1.75
2023-03-21T17:42:59.212Z,1.67
2023-03-21T17:45:25.903Z,1.98
2023-03-21T17:47:54.905Z,1.75
2023-03-21T17:50:24.712Z,2.70
2023-03-21T17:52:52.145Z,2.50
2023-03-21T17:55:19.580Z,38.67
2023-03-21T17:57:46.924Z,151.57
2023-03-21T18:00:23.112Z,149.25
2023-03-21T18:02:50.889Z,51.50
2023-03-21T18:05:18.633Z,112.20
2023-03-21T18:10:32.898Z,94.85
2023-03-21T18:13:00.175Z,119.30
2023-03-21T18:15:30.173Z,107.22
2023-03-21T18:17:58.013Z,123.03
2023-03-21T18:20:44.597Z,133.65
2023-03-21T18:23:14.274Z,140.25
2023-03-21T18:25:41.684Z,135.65
2023-03-21T18:28:11.911Z,140.75
2023-03-21T18:30:56.796Z,115.38
2023-03-21T18:33:27.209Z,75.57
2023-03-21T18:35:59.080Z,86.82
2023-03-21T18:38:27.974Z,80.85
2023-03-21T18:40:55.854Z,123.43
2023-03-21T18:46:10.977Z,172.20
2023-03-21T18:48:39.373Z,180.13
2023-03-21T18:51:07.008Z,183.43
2023-03-21T18:53:34.210Z,198.00
2023-03-21T18:56:09.125Z,180.65
2023-03-21T18:58:37.208Z,218.55
2023-03-21T19:01:05.201Z,167.02
2023-03-21T19:03:37.085Z,197.27
2023-03-21T19:06:05.554Z,180.23
2023-03-21T19:08:34.653Z,207.65
2023-03-21T19:11:06.034Z,222.07
2023-03-21T19:13:34.233Z,210.48
2023-03-21T19:16:02.721Z,198.23
2023-03-21T19:18:52.981Z,208.07
2023-03-21T19:21:18.745Z,153.57
2023-03-21T19:24:20.936Z,97.30
2023-03-21T19:26:32.501Z,156.67
2023-03-21T19:28:59.602Z,181.35
2023-03-21T19:31:27.142Z,191.13
2023-03-21T19:33:53.921Z,125.70
2023-03-21T19:36:23.168Z,211.82
2023-03-21T19:38:50.902Z,198.77
2023-03-21T19:41:20.225Z,219.52
2023-03-21T19:43:54.732Z,167.73
2023-03-21T19:46:25.297Z,181.25
2023-03-21T19:48:56.325Z,156.27
2023-03-21T19:51:28.828Z,154.35
2023-03-21T19:53:57.894Z,149.43
2023-03-21T19:56:27.442Z,128.95
2023-03-21T19:58:55.818Z,115.68
2023-03-21T20:01:24.059Z,136.88
2023-03-21T20:03:51.432Z,143.33
2023-03-21T20:06:18.553Z,122.47
2023-03-21T20:11:33.682Z,124.83
2023-03-21T20:14:03.023Z,160.38
2023-03-21T20:16:35.051Z,162.90
2023-03-21T20:19:03.652Z,111.68
2023-03-21T20:21:38.884Z,90.20
2023-03-21T20:24:12.587Z,90.45
2023-03-21T20:26:39.520Z,81.03
2023-03-21T20:29:46.988Z,56.40
2023-03-21T20:31:53.413Z,123.60
2023-03-21T20:34:21.375Z,125.32
2023-03-21T20:36:48.985Z,101.07
2023-03-21T20:39:16.266Z,69.13
2023-03-21T20:41:43.500Z,103.43
2023-03-21T20:46:57.769Z,93.67
2023-03-21T20:49:25.812Z,69.20
2023-03-21T20:54:42.185Z,76.78
2023-03-21T20:57:10.081Z,94.38
2023-03-21T20:59:37.320Z,132.00
2023-03-21T21:02:05.302Z,119.32
2023-03-21T21:05:12.142Z,137.67
2023-03-21T21:07:21.721Z,140.55
2023-03-21T21:09:49.403Z,147.63
2023-03-21T21:12:19.109Z,106.47
2023-03-21T21:14:47.723Z,97.90
2023-03-21T21:17:31.187Z,94.10
2023-03-21T21:20:12.187Z,98.78
2023-03-21T21:22:40.227Z,63.30
2023-03-21T21:25:08.254Z,58.60
2023-03-21T21:27:51.526Z,65.85
2023-03-21T21:30:18.728Z,77.43
2023-03-21T21:32:45.813Z,61.15
2023-03-21T21:35:12.999Z,86.75
2023-03-21T21:37:41.885Z,96.70
2023-03-21T21:40:13.632Z,97.32
2023-03-21T21:42:41.818Z,110.85
2023-03-21T21:45:09.653Z,83.93
2023-03-21T21:47:37.282Z,87.10
2023-03-21T21:50:04.689Z,101.93
2023-03-21T21:52:31.875Z,90.18
2023-03-21T21:55:01.947Z,86.07
2023-03-21T21:57:33.974Z,92.97
2023-03-21T22:00:06.656Z,85.80
2023-03-21T22:02:39.586Z,78.25
2023-03-21T22:05:08.613Z,88.43
2023-03-21T22:07:37.323Z,120.25
2023-03-21T22:10:04.585Z,37.53
2023-03-21T22:12:32.221Z,72.38
2023-03-21T22:14:59.050Z,10.05
2023-03-21T22:17:26.333Z,70.03
2023-03-21T22:20:05.172Z,88.20
2023-03-21T22:22:37.039Z,74.75
2023-03-21T22:25:05.567Z,70.28
2023-03-21T22:27:33.019Z,60.25
2023-03-21T22:30:05.695Z,30.02
2023-03-21T22:32:33.153Z,67.07
2023-03-21T22:35:02.580Z,70.35
2023-03-21T22:37:34.843Z,92.47
2023-03-21T22:40:02.220Z,92.10
2023-03-21T22:42:29.328Z,87.80
2023-03-21T22:44:56.484Z,40.72
2023-03-21T22:47:23.237Z,44.13
2023-03-21T22:49:50.388Z,47.15
2023-03-21T22:52:17.832Z,69.10
2023-03-21T22:54:45.807Z,52.90
2023-03-21T22:57:13.636Z,49.80
2023-03-21T22:59:41.154Z,58.85
2023-03-21T23:02:09.458Z,3.55
2023-03-21T23:04:36.754Z,103.17
2023-03-21T23:07:04.056Z,101.47
2023-03-21T23:09:31.316Z,51.78
2023-03-21T23:11:58.517Z,92.00
2023-03-21T23:14:25.683Z,47.45
2023-03-21T23:16:53.350Z,23.83
2023-03-21T23:19:21.062Z,66.53
2023-03-21T23:21:48.646Z,85.30
2023-03-21T23:24:15.829Z,1.50
2023-03-21T23:26:43.009Z,107.10
2023-03-21T23:29:10.637Z,129.02
2023-03-21T23:31:37.822Z,129.70
2023-03-21T23:34:05.246Z,134.63
2023-03-21T23:36:32.442Z,115.05
2023-03-21T23:38:59.651Z,128.45
2023-03-21T23:41:26.911Z,136.30
2023-03-21T23:43:54.076Z,170.57
2023-03-21T23:46:21.533Z,176.60
2023-03-21T23:48:48.795Z,152.38
2023-03-21T23:51:17.393Z,180.00
2023-03-21T23:53:45.354Z,171.48
2023-03-21T23:56:15.529Z,140.40
2023-03-21T23:58:42.664Z,109.55
